sensor_id;sensor_type;location;lat;lon;timestamp;pressure;altitude;pressure_sealevel;temperature
34023;BMP280;20673;48.980;8.138;2023-02-01T00:00:11;100964.11;;;5.64
34023;BMP280;20673;48.980;8.138;2023-02-01T00:02:38;100963.12;;;5.64
34023;BMP280;20673;48.980;8.138;2023-02-01T00:05:08;100953.85;;;5.64
34023;BMP280;20673;48.980;8.138;2023-02-01T00:07:34;100950.62;;;5.66
34023;BMP280;20673;48.980;8.138;2023-02-01T00:10:01;100951.54;;;5.66
34023;BMP280;20673;48.980;8.138;2023-02-01T00:12:29;100952.00;;;5.70
34023;BMP280;20673;48.980;8.138;2023-02-01T00:14:55;100935.48;;;5.71
34023;BMP280;20673;48.980;8.138;2023-02-01T00:17:21;100931.38;;;5.73
34023;BMP280;20673;48.980;8.138;2023-02-01T00:19:47;100926.71;;;5.74
34023;BMP280;20673;48.980;8.138;2023-02-01T00:22:13;100925.78;;;5.73
34023;BMP280;20673;48.980;8.138;2023-02-01T00:24:39;100917.91;;;5.76
34023;BMP280;20673;48.980;8.138;2023-02-01T00:27:05;100914.26;;;5.77
34023;BMP280;20673;48.980;8.138;2023-02-01T00:29:31;100914.45;;;5.77
34023;BMP280;20673;48.980;8.138;2023-02-01T00:31:57;100918.73;;;5.78
34023;BMP280;20673;48.980;8.138;2023-02-01T00:34:23;100917.25;;;5.76
34023;BMP280;20673;48.980;8.138;2023-02-01T00:36:49;100929.36;;;5.79
34023;BMP280;20673;48.980;8.138;2023-02-01T00:39:15;100921.31;;;5.78
34023;BMP280;20673;48.980;8.138;2023-02-01T00:41:41;100923.13;;;5.78
34023;BMP280;20673;48.980;8.138;2023-02-01T00:44:07;100921.29;;;5.79
34023;BMP280;20673;48.980;8.138;2023-02-01T00:46:33;100908.36;;;5.80
34023;BMP280;20673;48.980;8.138;2023-02-01T00:48:59;100894.86;;;5.84
34023;BMP280;20673;48.980;8.138;2023-02-01T00:51:27;100900.79;;;5.87
34023;BMP280;20673;48.980;8.138;2023-02-01T00:53:53;100893.04;;;5.89
34023;BMP280;20673;48.980;8.138;2023-02-01T00:56:20;100890.97;;;5.89
34023;BMP280;20673;48.980;8.138;2023-02-01T00:58:46;100885.67;;;5.90
34023;BMP280;20673;48.980;8.138;2023-02-01T01:01:17;100886.92;;;5.92
34023;BMP280;20673;48.980;8.138;2023-02-01T01:03:47;100889.79;;;5.95
34023;BMP280;20673;48.980;8.138;2023-02-01T01:06:16;100897.18;;;5.98
34023;BMP280;20673;48.980;8.138;2023-02-01T01:08:43;100884.45;;;5.96
34023;BMP280;20673;48.980;8.138;2023-02-01T01:11:14;100884.42;;;6.00
34023;BMP280;20673;48.980;8.138;2023-02-01T01:13:41;100884.66;;;6.02
34023;BMP280;20673;48.980;8.138;2023-02-01T01:16:09;100882.81;;;6.01
34023;BMP280;20673;48.980;8.138;2023-02-01T01:18:37;100888.70;;;5.97
34023;BMP280;20673;48.980;8.138;2023-02-01T01:21:07;100892.11;;;5.99
34023;BMP280;20673;48.980;8.138;2023-02-01T01:23:34;100894.69;;;6.00
34023;BMP280;20673;48.980;8.138;2023-02-01T01:26:06;100894.81;;;6.02
34023;BMP280;20673;48.980;8.138;2023-02-01T01:28:32;100890.78;;;6.06
34023;BMP280;20673;48.980;8.138;2023-02-01T01:30:58;100885.02;;;6.05
34023;BMP280;20673;48.980;8.138;2023-02-01T01:33:24;100891.00;;;6.03
34023;BMP280;20673;48.980;8.138;2023-02-01T01:35:50;100887.31;;;6.06
34023;BMP280;20673;48.980;8.138;2023-02-01T01:38:16;100879.29;;;6.07
34023;BMP280;20673;48.980;8.138;2023-02-01T01:40:46;100876.43;;;6.05
34023;BMP280;20673;48.980;8.138;2023-02-01T01:43:16;100870.98;;;6.06
34023;BMP280;20673;48.980;8.138;2023-02-01T01:45:43;100874.59;;;6.05
34023;BMP280;20673;48.980;8.138;2023-02-01T01:48:21;100867.11;;;6.08
34023;BMP280;20673;48.980;8.138;2023-02-01T01:50:57;100870.54;;;6.04
34023;BMP280;20673;48.980;8.138;2023-02-01T01:53:30;100861.19;;;6.03
34023;BMP280;20673;48.980;8.138;2023-02-01T01:55:54;100861.87;;;6.03
34023;BMP280;20673;48.980;8.138;2023-02-01T01:58:24;100866.41;;;6.04
34023;BMP280;20673;48.980;8.138;2023-02-01T02:00:51;100865.84;;;6.05
34023;BMP280;20673;48.980;8.138;2023-02-01T02:05:50;100874.79;;;6.05
34023;BMP280;20673;48.980;8.138;2023-02-01T02:08:18;100860.74;;;6.07
34023;BMP280;20673;48.980;8.138;2023-02-01T02:10:47;100854.01;;;6.08
34023;BMP280;20673;48.980;8.138;2023-02-01T02:13:28;100854.54;;;6.07
34023;BMP280;20673;48.980;8.138;2023-02-01T02:21:54;100826.83;;;6.12
34023;BMP280;20673;48.980;8.138;2023-02-01T02:24:43;100845.17;;;6.10
34023;BMP280;20673;48.980;8.138;2023-02-01T02:30:01;100826.75;;;6.11
34023;BMP280;20673;48.980;8.138;2023-02-01T02:34:57;100832.60;;;6.12
34023;BMP280;20673;48.980;8.138;2023-02-01T02:40:18;100842.31;;;6.10
34023;BMP280;20673;48.980;8.138;2023-02-01T02:42:46;100848.50;;;6.12
34023;BMP280;20673;48.980;8.138;2023-02-01T02:45:44;100862.11;;;6.10
34023;BMP280;20673;48.980;8.138;2023-02-01T02:48:44;100859.83;;;6.12
34023;BMP280;20673;48.980;8.138;2023-02-01T02:51:20;100858.06;;;6.10
34023;BMP280;20673;48.980;8.138;2023-02-01T02:54:15;100850.51;;;6.11
34023;BMP280;20673;48.980;8.138;2023-02-01T02:56:56;100858.18;;;6.09
34023;BMP280;20673;48.980;8.138;2023-02-01T02:59:43;100862.23;;;6.04
34023;BMP280;20673;48.980;8.138;2023-02-01T03:02:28;100861.93;;;6.01
34023;BMP280;20673;48.980;8.138;2023-02-01T03:05:12;100862.25;;;5.99
34023;BMP280;20673;48.980;8.138;2023-02-01T03:10:31;100853.51;;;5.96
34023;BMP280;20673;48.980;8.138;2023-02-01T03:16:41;100847.89;;;5.95
34023;BMP280;20673;48.980;8.138;2023-02-01T03:18:22;100848.23;;;5.94
34023;BMP280;20673;48.980;8.138;2023-02-01T03:20:49;100847.58;;;5.92
34023;BMP280;20673;48.980;8.138;2023-02-01T03:23:18;100842.78;;;5.99
34023;BMP280;20673;48.980;8.138;2023-02-01T03:25:47;100841.09;;;5.98
34023;BMP280;20673;48.980;8.138;2023-02-01T03:28:15;100828.68;;;5.96
34023;BMP280;20673;48.980;8.138;2023-02-01T03:30:44;100808.91;;;5.96
34023;BMP280;20673;48.980;8.138;2023-02-01T03:33:17;100808.00;;;6.01
34023;BMP280;20673;48.980;8.138;2023-02-01T03:41:28;100813.26;;;6.03
34023;BMP280;20673;48.980;8.138;2023-02-01T03:47:04;100817.17;;;6.05
34023;BMP280;20673;48.980;8.138;2023-02-01T03:49:38;100821.48;;;6.06
34023;BMP280;20673;48.980;8.138;2023-02-01T03:52:07;100830.24;;;6.04
34023;BMP280;20673;48.980;8.138;2023-02-01T03:54:34;100830.76;;;6.07
34023;BMP280;20673;48.980;8.138;2023-02-01T03:57:06;100834.68;;;6.04
34023;BMP280;20673;48.980;8.138;2023-02-01T03:59:31;100820.45;;;6.00
34023;BMP280;20673;48.980;8.138;2023-02-01T04:01:57;100812.95;;;5.96
34023;BMP280;20673;48.980;8.138;2023-02-01T04:04:23;100816.25;;;5.94
34023;BMP280;20673;48.980;8.138;2023-02-01T04:06:50;100820.75;;;5.93
34023;BMP280;20673;48.980;8.138;2023-02-01T04:09:16;100829.22;;;5.91
34023;BMP280;20673;48.980;8.138;2023-02-01T04:11:43;100833.39;;;5.88
34023;BMP280;20673;48.980;8.138;2023-02-01T04:14:09;100837.30;;;5.89
34023;BMP280;20673;48.980;8.138;2023-02-01T04:16:35;100842.53;;;5.90
34023;BMP280;20673;48.980;8.138;2023-02-01T04:19:01;100839.26;;;5.91
34023;BMP280;20673;48.980;8.138;2023-02-01T04:21:27;100840.20;;;5.95
34023;BMP280;20673;48.980;8.138;2023-02-01T04:23:53;100844.15;;;5.93
34023;BMP280;20673;48.980;8.138;2023-02-01T04:26:20;100845.14;;;5.93
34023;BMP280;20673;48.980;8.138;2023-02-01T04:28:47;100837.72;;;5.95
34023;BMP280;20673;48.980;8.138;2023-02-01T04:31:15;100845.56;;;5.95
34023;BMP280;20673;48.980;8.138;2023-02-01T04:33:41;100841.04;;;5.90
34023;BMP280;20673;48.980;8.138;2023-02-01T04:36:07;100826.81;;;5.85
34023;BMP280;20673;48.980;8.138;2023-02-01T04:38:33;100829.04;;;5.83
34023;BMP280;20673;48.980;8.138;2023-02-01T04:40:59;100829.87;;;5.82
34023;BMP280;20673;48.980;8.138;2023-02-01T04:43:25;100825.74;;;5.80
34023;BMP280;20673;48.980;8.138;2023-02-01T04:45:51;100816.83;;;5.78
34023;BMP280;20673;48.980;8.138;2023-02-01T04:48:18;100834.71;;;5.79
34023;BMP280;20673;48.980;8.138;2023-02-01T04:50:47;100855.53;;;5.78
34023;BMP280;20673;48.980;8.138;2023-02-01T04:53:17;100840.65;;;5.82
34023;BMP280;20673;48.980;8.138;2023-02-01T04:55:44;100843.46;;;5.82
34023;BMP280;20673;48.980;8.138;2023-02-01T04:58:10;100850.86;;;5.79
34023;BMP280;20673;48.980;8.138;2023-02-01T05:00:37;100839.20;;;5.78
34023;BMP280;20673;48.980;8.138;2023-02-01T05:03:03;100836.84;;;5.74
34023;BMP280;20673;48.980;8.138;2023-02-01T05:05:29;100827.12;;;5.69
34023;BMP280;20673;48.980;8.138;2023-02-01T05:07:55;100837.60;;;5.71
34023;BMP280;20673;48.980;8.138;2023-02-01T05:10:21;100840.35;;;5.70
34023;BMP280;20673;48.980;8.138;2023-02-01T05:12:47;100834.25;;;5.70
34023;BMP280;20673;48.980;8.138;2023-02-01T05:15:31;100839.35;;;5.75
34023;BMP280;20673;48.980;8.138;2023-02-01T05:17:57;100848.95;;;5.77
34023;BMP280;20673;48.980;8.138;2023-02-01T05:20:24;100848.56;;;5.79
34023;BMP280;20673;48.980;8.138;2023-02-01T05:22:50;100849.27;;;5.81
34023;BMP280;20673;48.980;8.138;2023-02-01T05:25:16;100837.67;;;5.83
34023;BMP280;20673;48.980;8.138;2023-02-01T05:27:42;100820.25;;;5.86
34023;BMP280;20673;48.980;8.138;2023-02-01T05:30:09;100822.11;;;5.89
34023;BMP280;20673;48.980;8.138;2023-02-01T05:32:35;100825.87;;;5.94
34023;BMP280;20673;48.980;8.138;2023-02-01T05:35:01;100831.72;;;5.99
34023;BMP280;20673;48.980;8.138;2023-02-01T05:37:27;100834.03;;;5.99
34023;BMP280;20673;48.980;8.138;2023-02-01T05:39:54;100826.58;;;6.00
34023;BMP280;20673;48.980;8.138;2023-02-01T05:42:21;100824.26;;;6.05
34023;BMP280;20673;48.980;8.138;2023-02-01T05:44:47;100815.79;;;6.10
34023;BMP280;20673;48.980;8.138;2023-02-01T05:47:13;100831.33;;;6.14
34023;BMP280;20673;48.980;8.138;2023-02-01T05:49:39;100829.33;;;6.19
34023;BMP280;20673;48.980;8.138;2023-02-01T05:52:05;100818.01;;;6.22
34023;BMP280;20673;48.980;8.138;2023-02-01T05:54:31;100816.24;;;6.23
34023;BMP280;20673;48.980;8.138;2023-02-01T05:56:57;100816.11;;;6.24
34023;BMP280;20673;48.980;8.138;2023-02-01T05:59:23;100808.65;;;6.25
34023;BMP280;20673;48.980;8.138;2023-02-01T06:01:49;100815.18;;;6.27
34023;BMP280;20673;48.980;8.138;2023-02-01T06:04:15;100820.60;;;6.32
34023;BMP280;20673;48.980;8.138;2023-02-01T06:06:41;100814.76;;;6.34
34023;BMP280;20673;48.980;8.138;2023-02-01T06:09:07;100829.51;;;6.36
34023;BMP280;20673;48.980;8.138;2023-02-01T06:11:33;100823.26;;;6.36
34023;BMP280;20673;48.980;8.138;2023-02-01T06:13:59;100812.29;;;6.37
34023;BMP280;20673;48.980;8.138;2023-02-01T06:16:25;100810.36;;;6.36
34023;BMP280;20673;48.980;8.138;2023-02-01T06:18:51;100815.45;;;6.41
34023;BMP280;20673;48.980;8.138;2023-02-01T06:21:17;100819.89;;;6.42
34023;BMP280;20673;48.980;8.138;2023-02-01T06:23:45;100823.33;;;6.44
34023;BMP280;20673;48.980;8.138;2023-02-01T06:26:11;100829.84;;;6.47
34023;BMP280;20673;48.980;8.138;2023-02-01T06:28:37;100830.11;;;6.48
34023;BMP280;20673;48.980;8.138;2023-02-01T06:31:05;100832.73;;;6.49
34023;BMP280;20673;48.980;8.138;2023-02-01T06:33:34;100822.27;;;6.50
34023;BMP280;20673;48.980;8.138;2023-02-01T06:36:03;100824.23;;;6.55
34023;BMP280;20673;48.980;8.138;2023-02-01T06:38:29;100825.76;;;6.56
34023;BMP280;20673;48.980;8.138;2023-02-01T06:40:57;100831.86;;;6.59
34023;BMP280;20673;48.980;8.138;2023-02-01T06:43:25;100828.91;;;6.64
34023;BMP280;20673;48.980;8.138;2023-02-01T06:45:52;100837.85;;;6.62
34023;BMP280;20673;48.980;8.138;2023-02-01T06:48:18;100830.25;;;6.64
34023;BMP280;20673;48.980;8.138;2023-02-01T06:50:44;100830.56;;;6.66
34023;BMP280;20673;48.980;8.138;2023-02-01T06:53:10;100848.18;;;6.68
34023;BMP280;20673;48.980;8.138;2023-02-01T06:55:36;100859.56;;;6.69
34023;BMP280;20673;48.980;8.138;2023-02-01T06:58:02;100859.34;;;6.70
34023;BMP280;20673;48.980;8.138;2023-02-01T07:00:29;100864.40;;;6.71
34023;BMP280;20673;48.980;8.138;2023-02-01T07:02:57;100876.04;;;6.71
34023;BMP280;20673;48.980;8.138;2023-02-01T07:05:23;100880.27;;;6.66
34023;BMP280;20673;48.980;8.138;2023-02-01T07:07:49;100874.84;;;6.66
34023;BMP280;20673;48.980;8.138;2023-02-01T07:10:16;100881.31;;;6.67
34023;BMP280;20673;48.980;8.138;2023-02-01T07:12:42;100877.31;;;6.68
34023;BMP280;20673;48.980;8.138;2023-02-01T07:15:08;100878.94;;;6.67
34023;BMP280;20673;48.980;8.138;2023-02-01T07:17:34;100882.15;;;6.65
34023;BMP280;20673;48.980;8.138;2023-02-01T07:20:00;100882.62;;;6.65
34023;BMP280;20673;48.980;8.138;2023-02-01T07:22:27;100888.70;;;6.67
34023;BMP280;20673;48.980;8.138;2023-02-01T07:24:53;100879.79;;;6.67
34023;BMP280;20673;48.980;8.138;2023-02-01T07:27:19;100872.68;;;6.67
34023;BMP280;20673;48.980;8.138;2023-02-01T07:29:45;100874.61;;;6.72
34023;BMP280;20673;48.980;8.138;2023-02-01T07:32:11;100876.54;;;6.67
34023;BMP280;20673;48.980;8.138;2023-02-01T07:34:37;100880.12;;;6.59
34023;BMP280;20673;48.980;8.138;2023-02-01T07:37:03;100877.83;;;6.57
34023;BMP280;20673;48.980;8.138;2023-02-01T07:39:29;100875.54;;;6.52
34023;BMP280;20673;48.980;8.138;2023-02-01T07:41:57;100870.98;;;6.48
34023;BMP280;20673;48.980;8.138;2023-02-01T07:44:23;100875.61;;;6.47
34023;BMP280;20673;48.980;8.138;2023-02-01T07:46:49;100875.07;;;6.48
34023;BMP280;20673;48.980;8.138;2023-02-01T07:49:16;100870.49;;;6.42
34023;BMP280;20673;48.980;8.138;2023-02-01T07:51:43;100878.63;;;6.36
34023;BMP280;20673;48.980;8.138;2023-02-01T07:54:09;100876.68;;;6.33
34023;BMP280;20673;48.980;8.138;2023-02-01T07:56:35;100868.28;;;6.34
34023;BMP280;20673;48.980;8.138;2023-02-01T07:59:01;100868.48;;;6.40
34023;BMP280;20673;48.980;8.138;2023-02-01T08:01:28;100872.87;;;6.37
34023;BMP280;20673;48.980;8.138;2023-02-01T08:03:58;100873.34;;;6.38
34023;BMP280;20673;48.980;8.138;2023-02-01T08:06:25;100873.20;;;6.37
34023;BMP280;20673;48.980;8.138;2023-02-01T08:08:52;100877.37;;;6.45
34023;BMP280;20673;48.980;8.138;2023-02-01T08:11:19;100883.98;;;6.45
34023;BMP280;20673;48.980;8.138;2023-02-01T08:13:46;100878.45;;;6.47
34023;BMP280;20673;48.980;8.138;2023-02-01T08:16:13;100880.75;;;6.50
34023;BMP280;20673;48.980;8.138;2023-02-01T08:18:39;100891.00;;;6.51
34023;BMP280;20673;48.980;8.138;2023-02-01T08:21:09;100889.45;;;6.51
34023;BMP280;20673;48.980;8.138;2023-02-01T08:23:36;100899.12;;;6.55
34023;BMP280;20673;48.980;8.138;2023-02-01T08:26:15;100899.26;;;6.58
34023;BMP280;20673;48.980;8.138;2023-02-01T08:28:49;100904.75;;;6.57
34023;BMP280;20673;48.980;8.138;2023-02-01T08:31:17;100912.42;;;6.60
34023;BMP280;20673;48.980;8.138;2023-02-01T08:33:43;100921.48;;;6.60
34023;BMP280;20673;48.980;8.138;2023-02-01T08:36:10;100924.34;;;6.60
34023;BMP280;20673;48.980;8.138;2023-02-01T08:38:38;100923.17;;;6.59
34023;BMP280;20673;48.980;8.138;2023-02-01T08:41:07;100929.45;;;6.61
34023;BMP280;20673;48.980;8.138;2023-02-01T08:43:33;100928.12;;;6.70
34023;BMP280;20673;48.980;8.138;2023-02-01T08:45:59;100928.41;;;6.78
34023;BMP280;20673;48.980;8.138;2023-02-01T08:48:25;100926.72;;;6.85
34023;BMP280;20673;48.980;8.138;2023-02-01T08:50:51;100939.45;;;6.87
34023;BMP280;20673;48.980;8.138;2023-02-01T08:53:17;100930.91;;;6.92
34023;BMP280;20673;48.980;8.138;2023-02-01T08:55:45;100934.47;;;7.00
34023;BMP280;20673;48.980;8.138;2023-02-01T08:58:11;100947.87;;;7.04
34023;BMP280;20673;48.980;8.138;2023-02-01T09:00:40;100927.95;;;7.11
34023;BMP280;20673;48.980;8.138;2023-02-01T09:03:07;100923.00;;;7.13
34023;BMP280;20673;48.980;8.138;2023-02-01T09:05:33;100925.69;;;7.21
34023;BMP280;20673;48.980;8.138;2023-02-01T09:07:59;100914.57;;;7.26
34023;BMP280;20673;48.980;8.138;2023-02-01T09:10:25;100927.73;;;7.26
34023;BMP280;20673;48.980;8.138;2023-02-01T09:12:51;100929.39;;;7.30
34023;BMP280;20673;48.980;8.138;2023-02-01T09:15:17;100922.22;;;7.32
34023;BMP280;20673;48.980;8.138;2023-02-01T09:17:43;100925.84;;;7.32
34023;BMP280;20673;48.980;8.138;2023-02-01T09:20:10;100924.69;;;7.34
34023;BMP280;20673;48.980;8.138;2023-02-01T09:22:36;100919.44;;;7.30
34023;BMP280;20673;48.980;8.138;2023-02-01T09:25:02;100932.12;;;7.28
34023;BMP280;20673;48.980;8.138;2023-02-01T09:27:28;100936.98;;;7.27
34023;BMP280;20673;48.980;8.138;2023-02-01T09:29:54;100941.21;;;7.26
34023;BMP280;20673;48.980;8.138;2023-02-01T09:32:22;100932.34;;;7.27
34023;BMP280;20673;48.980;8.138;2023-02-01T09:34:49;100924.54;;;7.30
34023;BMP280;20673;48.980;8.138;2023-02-01T09:37:15;100940.56;;;7.32
34023;BMP280;20673;48.980;8.138;2023-02-01T09:39:42;100931.86;;;7.37
34023;BMP280;20673;48.980;8.138;2023-02-01T09:47:31;100934.33;;;7.37
34023;BMP280;20673;48.980;8.138;2023-02-01T09:50:11;100936.65;;;7.35
34023;BMP280;20673;48.980;8.138;2023-02-01T09:53:06;100946.14;;;7.33
34023;BMP280;20673;48.980;8.138;2023-02-01T09:55:24;100950.18;;;7.33
34023;BMP280;20673;48.980;8.138;2023-02-01T09:57:58;100965.25;;;7.37
34023;BMP280;20673;48.980;8.138;2023-02-01T10:00:27;100976.75;;;7.39
34023;BMP280;20673;48.980;8.138;2023-02-01T10:02:54;100984.95;;;7.44
34023;BMP280;20673;48.980;8.138;2023-02-01T10:08:10;100994.96;;;7.47
34023;BMP280;20673;48.980;8.138;2023-02-01T10:10:44;100990.25;;;7.49
34023;BMP280;20673;48.980;8.138;2023-02-01T10:13:17;101002.78;;;7.51
34023;BMP280;20673;48.980;8.138;2023-02-01T10:18:54;100997.33;;;7.53
34023;BMP280;20673;48.980;8.138;2023-02-01T10:27:21;100995.15;;;7.54
34023;BMP280;20673;48.980;8.138;2023-02-01T10:29:59;100987.15;;;7.57
34023;BMP280;20673;48.980;8.138;2023-02-01T10:32:32;100970.58;;;7.61
34023;BMP280;20673;48.980;8.138;2023-02-01T10:35:25;100976.22;;;7.68
34023;BMP280;20673;48.980;8.138;2023-02-01T10:37:48;100984.07;;;7.73
34023;BMP280;20673;48.980;8.138;2023-02-01T10:40:22;100977.80;;;7.79
34023;BMP280;20673;48.980;8.138;2023-02-01T10:42:51;100976.85;;;7.83
34023;BMP280;20673;48.980;8.138;2023-02-01T10:45:22;100973.25;;;7.89
34023;BMP280;20673;48.980;8.138;2023-02-01T10:47:51;100986.54;;;7.88
34023;BMP280;20673;48.980;8.138;2023-02-01T10:50:28;100990.72;;;7.92
34023;BMP280;20673;48.980;8.138;2023-02-01T10:52:54;100991.15;;;7.91
34023;BMP280;20673;48.980;8.138;2023-02-01T10:55:40;100993.72;;;7.96
34023;BMP280;20673;48.980;8.138;2023-02-01T10:58:16;100972.89;;;7.98
34023;BMP280;20673;48.980;8.138;2023-02-01T11:00:48;100955.90;;;7.93
34023;BMP280;20673;48.980;8.138;2023-02-01T11:03:30;100965.48;;;7.95
34023;BMP280;20673;48.980;8.138;2023-02-01T11:05:55;100969.16;;;7.88
34023;BMP280;20673;48.980;8.138;2023-02-01T11:08:21;100977.62;;;7.90
34023;BMP280;20673;48.980;8.138;2023-02-01T11:10:57;100960.43;;;7.89
34023;BMP280;20673;48.980;8.138;2023-02-01T11:13:18;100951.31;;;7.85
34023;BMP280;20673;48.980;8.138;2023-02-01T11:15:44;100951.43;;;7.89
34023;BMP280;20673;48.980;8.138;2023-02-01T11:18:19;100943.31;;;7.85
34023;BMP280;20673;48.980;8.138;2023-02-01T11:20:42;100928.78;;;7.85
34023;BMP280;20673;48.980;8.138;2023-02-01T11:23:18;100924.65;;;7.86
34023;BMP280;20673;48.980;8.138;2023-02-01T11:25:50;100920.29;;;7.86
34023;BMP280;20673;48.980;8.138;2023-02-01T11:28:16;100919.20;;;7.90
34023;BMP280;20673;48.980;8.138;2023-02-01T11:30:45;100922.01;;;7.96
34023;BMP280;20673;48.980;8.138;2023-02-01T11:33:16;100917.04;;;7.96
34023;BMP280;20673;48.980;8.138;2023-02-01T11:35:42;100905.21;;;8.01
34023;BMP280;20673;48.980;8.138;2023-02-01T11:38:25;100906.04;;;8.09
34023;BMP280;20673;48.980;8.138;2023-02-01T11:40:49;100900.72;;;8.12
34023;BMP280;20673;48.980;8.138;2023-02-01T11:43:19;100895.17;;;8.12
34023;BMP280;20673;48.980;8.138;2023-02-01T11:46:01;100894.87;;;8.11
34023;BMP280;20673;48.980;8.138;2023-02-01T11:48:29;100890.50;;;8.11
34023;BMP280;20673;48.980;8.138;2023-02-01T12:13:02;100901.23;;;8.06
34023;BMP280;20673;48.980;8.138;2023-02-01T12:23:46;100893.40;;;7.97
34023;BMP280;20673;48.980;8.138;2023-02-01T12:29:09;100886.57;;;7.93
34023;BMP280;20673;48.980;8.138;2023-02-01T12:31:53;100892.73;;;7.92
34023;BMP280;20673;48.980;8.138;2023-02-01T12:42:38;100887.00;;;7.86
34023;BMP280;20673;48.980;8.138;2023-02-01T12:45:11;100888.06;;;7.87
34023;BMP280;20673;48.980;8.138;2023-02-01T12:50:39;100890.39;;;7.83
34023;BMP280;20673;48.980;8.138;2023-02-01T12:53:07;100891.08;;;7.85
34023;BMP280;20673;48.980;8.138;2023-02-01T12:55:41;100882.06;;;7.84
34023;BMP280;20673;48.980;8.138;2023-02-01T13:00:40;100891.04;;;7.86
34023;BMP280;20673;48.980;8.138;2023-02-01T13:06:24;100886.09;;;7.86
34023;BMP280;20673;48.980;8.138;2023-02-01T13:11:44;100877.42;;;7.82
34023;BMP280;20673;48.980;8.138;2023-02-01T13:17:10;100865.89;;;7.83
34023;BMP280;20673;48.980;8.138;2023-02-01T13:19:43;100856.76;;;7.83
34023;BMP280;20673;48.980;8.138;2023-02-01T13:22:32;100858.12;;;7.86
34023;BMP280;20673;48.980;8.138;2023-02-01T13:25:13;100845.58;;;7.84
34023;BMP280;20673;48.980;8.138;2023-02-01T13:27:32;100847.10;;;7.79
34023;BMP280;20673;48.980;8.138;2023-02-01T13:30:30;100839.25;;;7.77
34023;BMP280;20673;48.980;8.138;2023-02-01T13:38:50;100822.42;;;7.74
34023;BMP280;20673;48.980;8.138;2023-02-01T13:43:48;100816.47;;;7.82
34023;BMP280;20673;48.980;8.138;2023-02-01T13:46:16;100820.95;;;7.84
34023;BMP280;20673;48.980;8.138;2023-02-01T13:51:28;100821.43;;;7.83
34023;BMP280;20673;48.980;8.138;2023-02-01T13:53:47;100820.38;;;7.85
34023;BMP280;20673;48.980;8.138;2023-02-01T13:56:19;100823.95;;;7.84
34023;BMP280;20673;48.980;8.138;2023-02-01T13:58:47;100823.31;;;7.84
34023;BMP280;20673;48.980;8.138;2023-02-01T14:04:03;100834.62;;;7.86
34023;BMP280;20673;48.980;8.138;2023-02-01T14:09:15;100835.08;;;7.91
34023;BMP280;20673;48.980;8.138;2023-02-01T14:11:50;100838.75;;;7.90
34023;BMP280;20673;48.980;8.138;2023-02-01T14:19:26;100842.87;;;7.96
34023;BMP280;20673;48.980;8.138;2023-02-01T14:21:55;100841.08;;;7.98
34023;BMP280;20673;48.980;8.138;2023-02-01T14:24:29;100839.04;;;7.99
34023;BMP280;20673;48.980;8.138;2023-02-01T14:27:01;100849.23;;;7.97
34023;BMP280;20673;48.980;8.138;2023-02-01T14:34:50;100847.22;;;8.01
34023;BMP280;20673;48.980;8.138;2023-02-01T14:40:01;100840.14;;;8.04
34023;BMP280;20673;48.980;8.138;2023-02-01T14:55:59;100838.93;;;8.12
34023;BMP280;20673;48.980;8.138;2023-02-01T14:58:50;100845.15;;;8.14
34023;BMP280;20673;48.980;8.138;2023-02-01T15:01:33;100839.85;;;8.16
34023;BMP280;20673;48.980;8.138;2023-02-01T15:04:16;100835.36;;;8.17
34023;BMP280;20673;48.980;8.138;2023-02-01T15:06:55;100842.81;;;8.20
34023;BMP280;20673;48.980;8.138;2023-02-01T15:09:42;100838.01;;;8.22
34023;BMP280;20673;48.980;8.138;2023-02-01T15:14:46;100826.68;;;8.20
34023;BMP280;20673;48.980;8.138;2023-02-01T15:17:22;100838.11;;;8.16
34023;BMP280;20673;48.980;8.138;2023-02-01T15:19:59;100834.33;;;8.12
34023;BMP280;20673;48.980;8.138;2023-02-01T15:22:24;100836.90;;;8.10
34023;BMP280;20673;48.980;8.138;2023-02-01T15:24:59;100832.92;;;8.06
34023;BMP280;20673;48.980;8.138;2023-02-01T15:27:29;100845.47;;;8.09
34023;BMP280;20673;48.980;8.138;2023-02-01T15:30:06;100842.58;;;8.05
34023;BMP280;20673;48.980;8.138;2023-02-01T15:32:35;100851.31;;;8.04
34023;BMP280;20673;48.980;8.138;2023-02-01T15:35:04;100853.77;;;8.05
34023;BMP280;20673;48.980;8.138;2023-02-01T15:37:31;100846.61;;;8.06
34023;BMP280;20673;48.980;8.138;2023-02-01T15:42:49;100855.86;;;8.01
34023;BMP280;20673;48.980;8.138;2023-02-01T15:45:16;100857.64;;;7.99
34023;BMP280;20673;48.980;8.138;2023-02-01T15:47:46;100855.47;;;7.98
34023;BMP280;20673;48.980;8.138;2023-02-01T15:50:15;100852.83;;;8.01
34023;BMP280;20673;48.980;8.138;2023-02-01T15:52:41;100852.57;;;7.97
34023;BMP280;20673;48.980;8.138;2023-02-01T15:55:17;100860.78;;;7.93
34023;BMP280;20673;48.980;8.138;2023-02-01T15:57:39;100856.47;;;7.90
34023;BMP280;20673;48.980;8.138;2023-02-01T16:03:00;100857.51;;;7.92
34023;BMP280;20673;48.980;8.138;2023-02-01T16:05:35;100858.93;;;7.87
34023;BMP280;20673;48.980;8.138;2023-02-01T16:08:15;100861.26;;;7.86
34023;BMP280;20673;48.980;8.138;2023-02-01T16:10:46;100851.97;;;7.83
34023;BMP280;20673;48.980;8.138;2023-02-01T16:13:14;100855.25;;;7.84
34023;BMP280;20673;48.980;8.138;2023-02-01T16:15:41;100849.10;;;7.83
34023;BMP280;20673;48.980;8.138;2023-02-01T16:18:07;100850.15;;;7.77
34023;BMP280;20673;48.980;8.138;2023-02-01T16:20:35;100858.08;;;7.81
34023;BMP280;20673;48.980;8.138;2023-02-01T16:23:01;100854.95;;;7.81
34023;BMP280;20673;48.980;8.138;2023-02-01T16:25:28;100859.11;;;7.83
34023;BMP280;20673;48.980;8.138;2023-02-01T16:27:54;100863.98;;;7.84
34023;BMP280;20673;48.980;8.138;2023-02-01T16:30:20;100861.75;;;7.85
34023;BMP280;20673;48.980;8.138;2023-02-01T16:32:55;100869.43;;;7.81
34023;BMP280;20673;48.980;8.138;2023-02-01T16:35:28;100868.61;;;7.81
34023;BMP280;20673;48.980;8.138;2023-02-01T16:37:58;100877.25;;;7.77
34023;BMP280;20673;48.980;8.138;2023-02-01T16:40:24;100880.02;;;7.75
34023;BMP280;20673;48.980;8.138;2023-02-01T16:42:51;100893.61;;;7.75
34023;BMP280;20673;48.980;8.138;2023-02-01T16:45:19;100889.82;;;7.76
34023;BMP280;20673;48.980;8.138;2023-02-01T16:47:47;100897.14;;;7.75
34023;BMP280;20673;48.980;8.138;2023-02-01T16:50:20;100894.46;;;7.77
34023;BMP280;20673;48.980;8.138;2023-02-01T16:52:46;100900.21;;;7.78
34023;BMP280;20673;48.980;8.138;2023-02-01T16:55:14;100893.73;;;7.76